Time;durP1;ratioP1;P1;durP2;ratioP2;P2;SDS_P1;SDS_P2;PMS_P1;PMS_P2;Temp;Humidity;BMP_temperature;BMP_pressure;BME280_temperature;BME280_humidity;BME280_pressure;Samples;Min_cycle;Max_cycle;Signal;HPM_P1;HPM_P2
2023/07/05 00:01:11;;;;;;;3.97;3.53;;;18.50;99.90;;;;;;4994329;28;20279;-67
2023/07/05 00:03:37;;;;;;;4.33;3.93;;;18.50;99.90;;;;;;4995101;28;20603;-67
2023/07/05 00:06:04;;;;;;;3.60;3.20;;;18.60;99.90;;;;;;4992957;28;20565;-67
2023/07/05 00:08:31;;;;;;;4.30;3.63;;;18.60;99.90;;;;;;4993907;28;20188;-67
2023/07/05 00:11:04;;;;;;;4.23;3.43;;;18.60;99.90;;;;;;4993213;28;20470;-67
2023/07/05 00:13:29;;;;;;;5.00;4.50;;;18.40;99.90;;;;;;4993597;28;20438;-67
2023/07/05 00:15:54;;;;;;;5.00;4.50;;;18.20;99.90;;;;;;4990929;28;20462;-66
2023/07/05 00:18:20;;;;;;;5.17;3.97;;;18.10;99.90;;;;;;4980419;28;20176;-67
2023/07/05 00:20:45;;;;;;;4.93;4.43;;;18.00;99.90;;;;;;4993701;28;20186;-67
2023/07/05 00:23:11;;;;;;;4.50;4.10;;;18.00;99.90;;;;;;4994886;28;20191;-66
2023/07/05 00:25:36;;;;;;;4.10;3.80;;;18.10;99.90;;;;;;4993893;28;20719;-66
2023/07/05 00:28:02;;;;;;;6.27;3.80;;;18.00;99.90;;;;;;4985953;28;20330;-66
2023/07/05 00:30:28;;;;;;;3.57;3.27;;;18.00;99.90;;;;;;4983515;28;20231;-67
2023/07/05 00:32:53;;;;;;;3.80;3.50;;;18.10;99.90;;;;;;4987684;28;20230;-67
2023/07/05 00:35:18;;;;;;;7.07;3.57;;;18.20;99.90;;;;;;4978991;28;20200;-67
2023/07/05 00:37:44;;;;;;;4.23;3.50;;;18.30;99.90;;;;;;4984808;28;20176;-67
2023/07/05 00:40:10;;;;;;;4.03;3.73;;;18.30;99.90;;;;;;4981354;28;20191;-67
2023/07/05 00:42:36;;;;;;;4.13;3.73;;;18.30;99.90;;;;;;4980689;28;20183;-67
2023/07/05 00:45:11;;;;;;;4.43;3.80;;;18.30;99.90;;;;;;4984502;28;20413;-67
2023/07/05 00:47:42;;;;;;;3.40;3.10;;;18.30;99.90;;;;;;4986041;28;21008;-67
2023/07/05 00:50:33;;;;;;;4.17;3.60;;;18.20;99.90;;;;;;4984951;28;20445;-67
2023/07/05 00:52:59;;;;;;;3.83;3.43;;;18.20;99.90;;;;;;4984912;28;20550;-67
2023/07/05 00:55:27;;;;;;;3.77;3.57;;;18.20;99.90;;;;;;4984779;28;20627;-67
2023/07/05 00:57:53;;;;;;;4.07;3.70;;;18.20;99.90;;;;;;4985275;28;20176;-67
2023/07/05 01:00:21;;;;;;;3.50;3.10;;;18.20;99.90;;;;;;4984094;28;20516;-67
2023/07/05 01:02:51;;;;;;;4.57;3.90;;;18.20;99.90;;;;;;4984821;28;20438;-67
2023/07/05 01:05:18;;;;;;;3.77;3.10;;;18.30;99.90;;;;;;4986577;28;20528;-67
2023/07/05 01:07:43;;;;;;;3.60;3.00;;;18.30;99.90;;;;;;4985265;28;20443;-67
2023/07/05 01:10:19;;;;;;;4.03;3.70;;;18.30;99.90;;;;;;4984273;28;20813;-67
2023/07/05 01:12:54;;;;;;;3.90;2.97;;;18.40;99.90;;;;;;4967865;28;20598;-67
2023/07/05 01:15:39;;;;;;;3.07;2.77;;;18.40;99.90;;;;;;4983797;28;20462;-67
2023/07/05 01:18:43;;;;;;;3.80;3.10;;;18.40;99.90;;;;;;4984337;28;20438;-67
2023/07/05 01:21:22;;;;;;;3.60;3.30;;;18.20;99.90;;;;;;4886855;29;20457;-67
2023/07/05 01:24:32;;;;;;;3.23;2.97;;;17.90;99.90;;;;;;4888086;29;20443;-67
2023/07/05 01:27:36;;;;;;;3.60;3.30;;;17.80;99.90;;;;;;4970651;28;20466;-67
2023/07/05 01:30:26;;;;;;;3.60;3.30;;;17.70;99.90;;;;;;4970283;28;20435;-67
2023/07/05 01:32:56;;;;;;;3.57;3.20;;;17.70;99.90;;;;;;4984127;28;20466;-67
2023/07/05 01:35:39;;;;;;;3.57;3.27;;;17.70;99.90;;;;;;4982443;28;20458;-67
2023/07/05 01:38:05;;;;;;;2.63;2.43;;;17.90;99.90;;;;;;4983664;28;20869;-67
2023/07/05 01:40:30;;;;;;;2.93;2.73;;;17.90;99.90;;;;;;4984598;28;20445;-67
2023/07/05 01:42:58;;;;;;;3.20;3.00;;;17.90;99.90;;;;;;4983069;28;20446;-67
2023/07/05 01:45:55;;;;;;;3.90;3.50;;;18.00;99.90;;;;;;4983030;28;20227;-67
2023/07/05 01:48:37;;;;;;;3.30;3.00;;;17.90;99.90;;;;;;4972515;28;20451;-67
2023/07/05 01:51:28;;;;;;;4.33;3.03;;;17.80;99.90;;;;;;4984849;28;20466;-67
2023/07/05 01:54:05;;;;;;;4.33;2.90;;;17.80;99.90;;;;;;4984408;28;20430;-67
2023/07/05 01:56:37;;;;;;;3.20;2.90;;;17.80;99.90;;;;;;4989026;28;20446;-67
2023/07/05 01:59:05;;;;;;;3.90;2.90;;;17.80;99.90;;;;;;4991228;28;20489;-67
2023/07/05 02:01:33;;;;;;;3.20;2.97;;;17.80;99.90;;;;;;4991925;28;20446;-67
2023/07/05 02:04:03;;;;;;;3.33;3.13;;;17.90;99.90;;;;;;4990962;28;20514;-67
2023/07/05 02:06:30;;;;;;;3.70;3.00;;;17.90;99.90;;;;;;5015262;23;20591;-67
2023/07/05 02:08:56;;;;;;;3.23;3.03;;;17.90;99.90;;;;;;4995071;28;20446;-68
2023/07/05 02:11:22;;;;;;;3.50;3.20;;;18.00;99.90;;;;;;5002022;28;20966;-67
2023/07/05 02:13:48;;;;;;;3.60;3.30;;;18.00;99.90;;;;;;5008083;28;20179;-67
2023/07/05 02:16:13;;;;;;;3.27;3.07;;;18.10;99.90;;;;;;5000493;28;20480;-65
2023/07/05 02:18:39;;;;;;;3.83;3.00;;;18.10;99.90;;;;;;5002859;28;20577;-68
2023/07/05 02:21:09;;;;;;;3.67;3.30;;;18.20;99.90;;;;;;5002702;28;20211;-65
2023/07/05 02:23:34;;;;;;;2.90;2.70;;;18.30;99.90;;;;;;5000682;28;20257;-67
2023/07/05 02:26:04;;;;;;;3.73;3.40;;;18.30;99.90;;;;;;5003720;28;20583;-65
2023/07/05 02:28:31;;;;;;;3.47;2.87;;;18.20;99.90;;;;;;5010035;28;20618;-67
2023/07/05 02:30:56;;;;;;;2.00;1.90;;;18.30;99.90;;;;;;5011672;28;20461;-67
2023/07/05 02:33:22;;;;;;;2.60;2.40;;;18.40;99.90;;;;;;5008034;28;20791;-67
2023/07/05 02:35:48;;;;;;;7.30;2.70;;;18.30;99.90;;;;;;5007687;28;20205;-67
2023/07/05 02:38:14;;;;;;;3.57;3.03;;;18.10;99.90;;;;;;5007885;28;20171;-67
2023/07/05 02:40:39;;;;;;;2.30;2.20;;;17.90;99.90;;;;;;5007779;28;20452;-67
2023/07/05 02:43:05;;;;;;;2.97;2.77;;;17.70;99.90;;;;;;5008267;28;20472;-67
2023/07/05 02:45:32;;;;;;;2.67;2.47;;;17.50;99.90;;;;;;5006619;28;20202;-67
2023/07/05 02:47:57;;;;;;;3.33;2.97;;;17.40;99.90;;;;;;5006795;28;20313;-67
2023/07/05 02:50:23;;;;;;;4.03;2.77;;;17.30;99.90;;;;;;5007988;28;20548;-67
2023/07/05 02:52:49;;;;;;;2.90;2.70;;;17.30;99.90;;;;;;5007572;28;20177;-67
2023/07/05 02:55:15;;;;;;;3.10;2.80;;;17.30;99.90;;;;;;5007890;28;20755;-67
2023/07/05 02:57:40;;;;;;;4.80;3.57;;;17.20;99.90;;;;;;5007389;28;20449;-67
2023/07/05 03:00:06;;;;;;;6.37;2.77;;;17.20;99.90;;;;;;5006139;28;20690;-65
2023/07/05 03:02:33;;;;;;;2.80;2.60;;;17.30;99.90;;;;;;5004869;28;20226;-67
2023/07/05 03:05:06;;;;;;;3.43;2.73;;;17.30;99.90;;;;;;5006704;28;21008;-67
2023/07/05 03:07:32;;;;;;;5.90;2.63;;;17.30;99.90;;;;;;5007252;28;20442;-65
2023/07/05 03:09:58;;;;;;;3.20;2.73;;;17.30;99.90;;;;;;5005975;28;20945;-65
2023/07/05 03:12:23;;;;;;;2.83;2.63;;;17.40;99.90;;;;;;5008134;28;20210;-67
2023/07/05 03:14:51;;;;;;;3.23;2.90;;;17.50;99.90;;;;;;5007424;28;20437;-67
2023/07/05 03:17:16;;;;;;;3.23;3.03;;;17.60;99.90;;;;;;5006774;28;20221;-67
2023/07/05 03:19:42;;;;;;;2.57;2.37;;;17.80;99.90;;;;;;5006833;28;20859;-65
2023/07/05 03:22:07;;;;;;;2.67;2.47;;;17.90;99.90;;;;;;5007669;28;20187;-65
2023/07/05 03:24:32;;;;;;;5.90;3.13;;;17.90;99.90;;;;;;5007292;28;20233;-65
2023/07/05 03:26:58;;;;;;;2.60;2.33;;;18.00;99.90;;;;;;5007417;28;20194;-65
2023/07/05 03:29:23;;;;;;;2.93;2.73;;;18.00;99.90;;;;;;5004955;28;20257;-67
2023/07/05 03:31:49;;;;;;;3.13;2.93;;;18.00;99.90;;;;;;5006571;28;20207;-67
2023/07/05 03:34:15;;;;;;;3.13;2.80;;;18.00;99.90;;;;;;5007347;28;20187;-67
2023/07/05 03:36:41;;;;;;;3.13;2.20;;;18.00;99.90;;;;;;5009007;28;20536;-67
2023/07/05 03:39:06;;;;;;;2.53;2.33;;;18.00;99.90;;;;;;5007684;28;20521;-65
2023/07/05 03:41:32;;;;;;;5.20;3.10;;;17.90;99.90;;;;;;5007451;28;20191;-68
2023/07/05 03:44:00;;;;;;;2.90;2.70;;;17.90;99.90;;;;;;5007593;28;20551;-65
2023/07/05 03:46:26;;;;;;;4.20;2.47;;;17.90;99.90;;;;;;5004255;28;20565;-67
2023/07/05 03:48:52;;;;;;;4.23;2.87;;;17.80;99.90;;;;;;5007685;28;20472;-67
2023/07/05 03:51:21;;;;;;;5.53;2.83;;;17.80;99.90;;;;;;5010713;28;20461;-67
2023/07/05 03:53:51;;;;;;;3.17;2.37;;;17.70;99.90;;;;;;5011939;28;20939;-67
2023/07/05 03:56:16;;;;;;;3.80;3.33;;;17.70;99.90;;;;;;5005358;28;20482;-67
2023/07/05 03:58:43;;;;;;;3.40;3.10;;;17.60;99.90;;;;;;5003202;28;20860;-67
2023/07/05 04:01:15;;;;;;;4.50;2.80;;;17.60;99.90;;;;;;4997766;28;20176;-68
2023/07/05 04:03:42;;;;;;;3.63;2.50;;;17.60;99.90;;;;;;5009938;28;20496;-68
2023/07/05 04:06:08;;;;;;;3.27;2.97;;;17.50;99.90;;;;;;5009641;28;20544;-68
2023/07/05 04:08:33;;;;;;;5.50;4.40;;;17.50;99.90;;;;;;4998782;28;20488;-67
2023/07/05 04:10:59;;;;;;;4.33;3.40;;;17.50;99.90;;;;;;4999942;28;20207;-68
2023/07/05 04:13:25;;;;;;;3.70;2.90;;;17.50;99.90;;;;;;4989892;28;20190;-67
2023/07/05 04:16:04;;;;;;;3.13;2.93;;;17.60;99.90;;;;;;5011340;28;20207;-68
2023/07/05 04:18:31;;;;;;;3.60;3.00;;;17.60;99.90;;;;;;5007843;28;20183;-68
2023/07/05 04:20:57;;;;;;;2.63;2.40;;;17.60;99.90;;;;;;4994681;28;20421;-67
2023/07/05 04:23:23;;;;;;;3.37;2.50;;;17.60;99.90;;;;;;5012874;28;20515;-67
2023/07/05 04:25:49;;;;;;;4.40;3.20;;;17.50;99.90;;;;;;5003730;28;20207;-65
2023/07/05 04:28:14;;;;;;;3.10;2.80;;;17.50;99.90;;;;;;5009683;28;20813;-67
2023/07/05 04:30:40;;;;;;;5.33;3.50;;;17.50;99.90;;;;;;5003031;28;20832;-67
2023/07/05 04:33:05;;;;;;;3.50;2.90;;;17.40;99.90;;;;;;5006077;28;20186;-68
2023/07/05 04:35:31;;;;;;;4.30;2.97;;;17.50;99.90;;;;;;5003017;28;20199;-67
2023/07/05 04:37:57;;;;;;;3.67;3.37;;;17.50;99.90;;;;;;4999766;28;20261;-68
2023/07/05 04:40:22;;;;;;;4.50;3.27;;;17.50;99.90;;;;;;5008983;28;20466;-68
2023/07/05 04:42:48;;;;;;;3.80;2.70;;;17.50;99.90;;;;;;5011112;28;20530;-66
2023/07/05 04:45:15;;;;;;;4.23;3.30;;;17.40;99.90;;;;;;5006498;28;20199;-67
2023/07/05 04:47:40;;;;;;;3.23;2.93;;;17.40;99.90;;;;;;5008728;28;20233;-66
2023/07/05 04:50:06;;;;;;;3.37;3.07;;;17.40;99.90;;;;;;5005296;28;20461;-67
2023/07/05 04:52:31;;;;;;;4.03;3.73;;;17.30;99.90;;;;;;5004613;28;20204;-66
2023/07/05 04:54:57;;;;;;;4.60;3.10;;;17.30;99.90;;;;;;5007732;28;20195;-66
2023/07/05 04:57:22;;;;;;;3.20;2.90;;;17.30;99.90;;;;;;5011353;28;20198;-66
2023/07/05 04:59:51;;;;;;;5.50;3.47;;;17.40;99.90;;;;;;5000305;28;20655;-66
2023/07/05 05:02:17;;;;;;;9.90;3.00;;;17.50;99.90;;;;;;5008239;28;20179;-67
2023/07/05 05:04:43;;;;;;;3.30;2.70;;;17.60;99.90;;;;;;5005861;28;20466;-66
2023/07/05 05:07:08;;;;;;;3.07;2.40;;;17.70;99.90;;;;;;5006304;28;20539;-67
2023/07/05 05:09:34;;;;;;;3.23;2.80;;;17.80;99.90;;;;;;5006385;28;20183;-67
2023/07/05 05:11:59;;;;;;;2.70;2.50;;;18.00;99.90;;;;;;5002286;28;20215;-67
2023/07/05 05:14:25;;;;;;;3.60;3.30;;;18.10;99.90;;;;;;5005778;28;20193;-67
2023/07/05 05:16:50;;;;;;;2.67;2.47;;;18.10;99.90;;;;;;5005891;28;20203;-67
2023/07/05 05:19:16;;;;;;;4.37;2.60;;;18.10;99.90;;;;;;5002703;28;20186;-66
2023/07/05 05:21:41;;;;;;;2.70;2.50;;;18.10;99.90;;;;;;5009250;28;20229;-67
2023/07/05 05:24:07;;;;;;;3.43;2.50;;;18.20;99.90;;;;;;5009620;28;20531;-67
2023/07/05 05:26:32;;;;;;;4.20;2.77;;;18.40;99.90;;;;;;5009881;28;20281;-67
2023/07/05 05:28:58;;;;;;;2.97;2.77;;;18.40;99.90;;;;;;5009946;28;20269;-67
2023/07/05 05:31:23;;;;;;;7.00;3.03;;;18.40;99.90;;;;;;5005121;28;20589;-67
2023/07/05 05:33:49;;;;;;;3.93;2.90;;;18.70;99.90;;;;;;5002941;28;20179;-66
2023/07/05 05:36:14;;;;;;;2.40;2.20;;;18.80;99.90;;;;;;5001678;28;20297;-66
2023/07/05 05:38:40;;;;;;;4.03;3.27;;;18.80;99.90;;;;;;5005369;28;20710;-67
2023/07/05 05:41:10;;;;;;;3.50;2.80;;;18.80;99.90;;;;;;5004803;28;20194;-67
2023/07/05 05:43:39;;;;;;;3.80;2.63;;;19.00;99.90;;;;;;5003164;28;20189;-67
2023/07/05 05:46:06;;;;;;;3.67;3.37;;;19.10;99.90;;;;;;5005982;28;20659;-67
2023/07/05 05:48:32;;;;;;;3.10;2.80;;;19.10;99.90;;;;;;5003957;28;20450;-68
2023/07/05 05:50:57;;;;;;;3.97;2.97;;;19.20;99.90;;;;;;5003951;28;21050;-68
2023/07/05 05:53:23;;;;;;;3.03;2.80;;;19.30;99.90;;;;;;5009030;28;20643;-68
2023/07/05 05:55:49;;;;;;;3.90;2.83;;;19.60;99.90;;;;;;5006703;28;20195;-68
2023/07/05 05:58:14;;;;;;;2.57;2.37;;;19.80;99.90;;;;;;4998152;28;20524;-68
2023/07/05 06:00:40;;;;;;;5.07;3.10;;;19.80;99.90;;;;;;5004340;28;20394;-68
2023/07/05 06:03:06;;;;;;;3.40;2.90;;;19.90;99.90;;;;;;5006447;28;20187;-68
2023/07/05 06:05:33;;;;;;;8.23;2.80;;;19.80;99.90;;;;;;5005471;28;20211;-68
2023/07/05 06:07:58;;;;;;;3.10;2.80;;;19.70;99.90;;;;;;5007655;28;20236;-68
2023/07/05 06:10:24;;;;;;;3.03;2.80;;;19.70;99.90;;;;;;4999924;28;20438;-68
2023/07/05 06:12:50;;;;;;;4.60;3.40;;;19.80;99.90;;;;;;5011870;28;20640;-68
2023/07/05 06:15:16;;;;;;;3.00;2.73;;;19.80;99.90;;;;;;5003523;28;20980;-68
2023/07/05 06:17:41;;;;;;;3.37;2.97;;;19.80;99.90;;;;;;5005401;28;20624;-68
2023/07/05 06:20:10;;;;;;;3.33;3.03;;;19.90;99.90;;;;;;5004930;28;20445;-68
2023/07/05 06:22:36;;;;;;;2.90;2.70;;;20.00;99.90;;;;;;5002891;28;20176;-68
2023/07/05 06:25:02;;;;;;;3.47;3.17;;;20.20;99.90;;;;;;5002152;28;21033;-68
2023/07/05 06:27:27;;;;;;;3.43;3.17;;;20.30;99.90;;;;;;5004647;28;20935;-68
2023/07/05 06:29:53;;;;;;;3.23;3.03;;;20.40;99.90;;;;;;5001818;28;20446;-68
2023/07/05 06:32:18;;;;;;;3.93;2.97;;;20.70;99.90;;;;;;4997080;28;20272;-68
2023/07/05 06:34:44;;;;;;;2.77;2.53;;;21.00;99.90;;;;;;5007538;28;20753;-67
2023/07/05 06:37:09;;;;;;;2.93;2.47;;;21.30;99.90;;;;;;5007553;28;20187;-67
2023/07/05 06:39:36;;;;;;;3.17;2.87;;;21.50;99.90;;;;;;5005562;28;20251;-67
2023/07/05 06:42:02;;;;;;;5.07;3.60;;;21.10;99.90;;;;;;5006693;28;20197;-68
2023/07/05 06:44:28;;;;;;;3.40;2.63;;;20.30;99.90;;;;;;5008466;28;20469;-68
2023/07/05 06:46:53;;;;;;;8.90;4.23;;;19.70;99.90;;;;;;5007470;28;20579;-66
2023/07/05 06:49:19;;;;;;;4.60;4.20;;;19.10;99.90;;;;;;5010702;28;20212;-70
2023/07/05 06:51:44;;;;;;;4.50;3.03;;;18.60;99.90;;;;;;5007723;28;20210;-68
2023/07/05 06:54:10;;;;;;;4.23;3.90;;;18.30;99.90;;;;;;5006443;28;20673;-68
2023/07/05 06:56:35;;;;;;;4.90;4.40;;;18.10;99.90;;;;;;5006005;28;20249;-68
2023/07/05 06:59:01;;;;;;;6.10;5.00;;;18.00;99.90;;;;;;5005426;28;20261;-67
2023/07/05 07:01:26;;;;;;;7.70;4.07;;;17.90;99.90;;;;;;5012674;28;20190;-69
2023/07/05 07:03:52;;;;;;;6.97;4.50;;;17.80;99.90;;;;;;5012918;28;20190;-69
2023/07/05 07:06:18;;;;;;;4.23;3.57;;;17.70;99.90;;;;;;5013140;28;20214;-70
2023/07/05 07:08:43;;;;;;;5.43;4.53;;;17.60;99.90;;;;;;4995195;28;20207;-70
2023/07/05 07:11:11;;;;;;;3.60;3.20;;;17.60;99.90;;;;;;4995005;28;20205;-69
2023/07/05 07:13:37;;;;;;;7.77;4.67;;;17.60;99.90;;;;;;4994899;28;20178;-69
2023/07/05 07:16:06;;;;;;;4.90;4.13;;;17.60;99.90;;;;;;4995165;28;20532;-69
2023/07/05 07:18:32;;;;;;;5.23;3.77;;;17.80;99.90;;;;;;5000285;28;20267;-69
2023/07/05 07:20:59;;;;;;;5.70;4.83;;;18.00;99.90;;;;;;5001926;28;20454;-69
2023/07/05 07:23:25;;;;;;;4.07;3.60;;;18.20;99.90;;;;;;4995352;28;20199;-69
2023/07/05 07:26:05;;;;;;;3.27;2.80;;;18.40;99.90;;;;;;4995297;28;20443;-69
2023/07/05 07:28:31;;;;;;;3.50;3.20;;;18.60;99.90;;;;;;4995027;28;20515;-69
2023/07/05 07:30:57;;;;;;;3.33;3.03;;;18.70;99.90;;;;;;4995248;28;20485;-69
2023/07/05 07:33:23;;;;;;;4.27;3.83;;;18.60;99.90;;;;;;5005594;28;20187;-69
2023/07/05 07:35:49;;;;;;;3.77;3.47;;;18.80;99.90;;;;;;4994916;28;20434;-69
2023/07/05 07:38:16;;;;;;;3.40;3.13;;;19.10;99.90;;;;;;4994762;28;20963;-68
2023/07/05 07:40:41;;;;;;;2.90;2.50;;;19.60;99.90;;;;;;4995030;28;20172;-69
2023/07/05 07:43:07;;;;;;;5.10;4.47;;;20.40;99.90;;;;;;4994865;28;20857;-69
2023/07/05 07:45:33;;;;;;;3.17;2.83;;;21.00;99.90;;;;;;4996362;28;20241;-69
2023/07/05 07:47:59;;;;;;;6.60;2.30;;;21.20;99.90;;;;;;5006390;28;20175;-69
2023/07/05 07:50:25;;;;;;;3.40;2.70;;;21.00;99.90;;;;;;5014026;28;20448;-68
2023/07/05 07:52:51;;;;;;;2.03;1.83;;;21.00;99.90;;;;;;5014417;28;20173;-68
2023/07/05 07:55:17;;;;;;;1.90;1.80;;;20.70;99.90;;;;;;5014253;28;20946;-68
2023/07/05 07:57:42;;;;;;;2.17;1.97;;;20.20;99.90;;;;;;5014180;28;20521;-69
2023/07/05 08:00:10;;;;;;;2.77;2.57;;;20.00;99.90;;;;;;5013080;28;20269;-68
2023/07/05 08:02:36;;;;;;;3.20;2.00;;;20.00;99.90;;;;;;5003363;28;20610;-68
2023/07/05 08:05:03;;;;;;;2.43;2.23;;;20.10;99.90;;;;;;5003492;28;20490;-69
2023/07/05 08:07:30;;;;;;;3.00;2.30;;;20.20;99.90;;;;;;5011545;28;20417;-68
2023/07/05 08:09:56;;;;;;;3.33;1.57;;;20.00;99.90;;;;;;5013762;28;20465;-69
2023/07/05 08:12:21;;;;;;;3.37;1.73;;;19.80;99.90;;;;;;5013772;28;20489;-69
2023/07/05 08:14:47;;;;;;;3.10;1.70;;;19.80;99.90;;;;;;4996554;28;20639;-68
2023/07/05 08:17:12;;;;;;;4.33;2.33;;;19.70;99.90;;;;;;5013909;28;20175;-69
2023/07/05 08:19:38;;;;;;;3.03;1.93;;;19.40;99.90;;;;;;5004603;28;20187;-68
2023/07/05 08:22:04;;;;;;;1.87;1.60;;;19.30;99.90;;;;;;5000189;28;20524;-69
2023/07/05 08:24:29;;;;;;;1.93;1.70;;;19.10;99.90;;;;;;4994199;28;20640;-69
2023/07/05 08:26:56;;;;;;;2.63;2.43;;;19.00;99.90;;;;;;4994328;28;20568;-69
2023/07/05 08:29:22;;;;;;;1.77;1.63;;;18.90;99.90;;;;;;4993741;28;20696;-70
2023/07/05 08:31:48;;;;;;;2.27;2.10;;;18.80;99.90;;;;;;4994955;28;20463;-69
2023/07/05 08:34:14;;;;;;;2.50;2.13;;;18.60;99.90;;;;;;5000979;28;20438;-69
2023/07/05 08:36:41;;;;;;;2.20;2.00;;;18.70;99.90;;;;;;4994778;28;20573;-69
2023/07/05 08:39:08;;;;;;;2.47;2.27;;;18.80;99.90;;;;;;4993650;28;20521;-68
2023/07/05 08:41:45;;;;;;;2.93;2.27;;;18.90;99.90;;;;;;4993834;28;20411;-69
2023/07/05 08:44:44;;;;;;;2.37;2.10;;;19.30;99.90;;;;;;4993811;28;20425;-69
2023/07/05 08:47:27;;;;;;;2.40;2.20;;;19.70;99.90;;;;;;5002823;28;20437;-68
2023/07/05 08:50:05;;;;;;;2.30;2.10;;;20.00;99.90;;;;;;5000628;28;20430;-68
2023/07/05 08:52:38;;;;;;;2.93;2.40;;;20.20;99.90;;;;;;5001611;28;20486;-69
2023/07/05 08:55:10;;;;;;;2.90;2.03;;;19.90;99.90;;;;;;4993624;28;20504;-68
2023/07/05 08:57:51;;;;;;;1.80;1.70;;;19.90;99.90;;;;;;4993627;28;20792;-69
2023/07/05 09:00:38;;;;;;;1.83;1.73;;;19.90;99.90;;;;;;4994802;28;20422;-69
2023/07/05 09:03:11;;;;;;;2.63;2.43;;;19.80;99.90;;;;;;5007353;28;20792;-69
2023/07/05 09:05:55;;;;;;;2.43;2.23;;;20.20;99.90;;;;;;5012844;28;20477;-70
2023/07/05 09:08:58;;;;;;;1.60;1.50;;;20.70;99.90;;;;;;5012676;28;20758;-69
2023/07/05 09:11:37;;;;;;;2.50;2.30;;;21.40;99.90;;;;;;5010087;28;20471;-69
2023/07/05 09:14:33;;;;;;;2.27;2.03;;;21.90;99.90;;;;;;5012917;28;20441;-69
2023/07/05 09:17:14;;;;;;;3.73;2.33;;;22.30;99.90;;;;;;5006154;28;20822;-69
2023/07/05 09:20:05;;;;;;;2.57;2.30;;;22.60;99.90;;;;;;5012519;28;20449;-69
2023/07/05 09:22:36;;;;;;;3.07;2.60;;;22.60;99.90;;;;;;5012740;28;20433;-69
2023/07/05 09:25:05;;;;;;;4.37;2.53;;;22.60;99.90;;;;;;5012718;28;20920;-69
2023/07/05 09:27:36;;;;;;;2.53;2.33;;;22.90;99.90;;;;;;5012652;28;20908;-70
2023/07/05 09:30:20;;;;;;;3.10;2.80;;;22.60;99.90;;;;;;5005541;28;20443;-69
2023/07/05 09:32:51;;;;;;;3.17;2.87;;;22.80;99.90;;;;;;5001013;28;20435;-68
2023/07/05 09:35:19;;;;;;;3.50;3.20;;;22.70;99.90;;;;;;4992922;28;20534;-70
2023/07/05 09:38:00;;;;;;;3.13;2.90;;;22.30;99.90;;;;;;4992741;28;20620;-68
2023/07/05 09:40:32;;;;;;;2.57;2.37;;;22.30;99.90;;;;;;4992185;28;20406;-69
2023/07/05 09:43:15;;;;;;;9.03;3.20;;;22.10;99.90;;;;;;4995588;28;20508;-69
2023/07/05 09:45:41;;;;;;;5.80;3.40;;;22.20;99.90;;;;;;5001533;28;20458;-69
2023/07/05 09:48:10;;;;;;;3.60;3.30;;;22.50;99.90;;;;;;4997968;28;20426;-69
2023/07/05 09:50:47;;;;;;;3.07;2.77;;;22.70;99.90;;;;;;4992463;28;20207;-69
2023/07/05 09:53:31;;;;;;;2.73;2.53;;;23.00;99.90;;;;;;4993690;28;20484;-69
2023/07/05 09:56:05;;;;;;;2.80;2.60;;;23.80;99.90;;;;;;5002939;28;20925;-70
2023/07/05 09:58:33;;;;;;;2.90;2.53;;;24.30;99.90;;;;;;4994305;28;20438;-69
2023/07/05 10:01:04;;;;;;;2.93;2.73;;;24.50;99.90;;;;;;4992847;28;20625;-69
2023/07/05 10:03:36;;;;;;;3.93;3.63;;;24.90;99.90;;;;;;4992636;28;20429;-69
2023/07/05 10:06:07;;;;;;;3.43;2.80;;;25.90;99.90;;;;;;4992442;28;20541;-70
2023/07/05 10:08:43;;;;;;;3.17;2.97;;;26.00;99.20;;;;;;4998036;28;20448;-69
2023/07/05 10:11:26;;;;;;;6.43;4.40;;;26.20;97.40;;;;;;4998269;28;20525;-70
2023/07/05 10:14:06;;;;;;;3.90;3.53;;;26.30;89.30;;;;;;5004628;28;20877;-69
2023/07/05 10:16:52;;;;;;;4.97;2.97;;;25.70;81.90;;;;;;5011973;28;20962;-69
2023/07/05 10:19:51;;;;;;;4.43;4.03;;;25.80;81.80;;;;;;5011283;28;20508;-69
2023/07/05 10:22:30;;;;;;;3.40;3.10;;;26.20;76.10;;;;;;5011104;28;20445;-69
2023/07/05 10:25:01;;;;;;;3.87;3.57;;;26.60;69.80;;;;;;5004964;28;20445;-70
2023/07/05 10:27:37;;;;;;;4.23;3.83;;;26.80;70.10;;;;;;5011939;28;20418;-69
2023/07/05 10:30:12;;;;;;;3.40;3.10;;;26.90;67.70;;;;;;5011958;28;20789;-69
2023/07/05 10:32:38;;;;;;;3.47;3.23;;;27.10;68.00;;;;;;5011879;28;20547;-69
2023/07/05 10:35:31;;;;;;;4.30;3.70;;;28.00;63.80;;;;;;5011861;28;21020;-69
2023/07/05 10:37:57;;;;;;;4.80;3.83;;;28.70;59.60;;;;;;5002815;28;20644;-70
2023/07/05 10:40:23;;;;;;;4.10;3.57;;;28.50;57.40;;;;;;4995198;28;20430;-70
2023/07/05 10:42:53;;;;;;;4.70;4.00;;;28.60;54.80;;;;;;4992203;28;20411;-69
2023/07/05 10:45:20;;;;;;;3.87;3.57;;;29.20;53.20;;;;;;4992154;28;20203;-69
2023/07/05 10:47:52;;;;;;;4.13;3.83;;;29.20;52.30;;;;;;4992328;28;20824;-69
2023/07/05 10:50:29;;;;;;;4.20;3.90;;;29.80;51.20;;;;;;4995540;28;20950;-70
2023/07/05 10:53:10;;;;;;;3.93;3.57;;;29.80;50.10;;;;;;5006679;28;20437;-70
2023/07/05 10:55:44;;;;;;;4.10;3.80;;;30.50;47.30;;;;;;5015564;28;20483;-69
2023/07/05 10:58:20;;;;;;;4.30;4.00;;;29.80;46.90;;;;;;5015230;28;20938;-71
2023/07/05 11:00:59;;;;;;;3.97;3.67;;;30.10;46.20;;;;;;5015240;28;20498;-69
2023/07/05 11:03:48;;;;;;;4.97;4.47;;;30.30;46.50;;;;;;5015329;28;20413;-70
2023/07/05 11:06:16;;;;;;;5.77;5.27;;;31.70;44.80;;;;;;5004843;28;20466;-70
2023/07/05 11:08:42;;;;;;;4.87;4.37;;;32.40;43.20;;;;;;5003410;28;20501;-68
2023/07/05 11:11:21;;;;;;;5.80;4.47;;;32.30;42.30;;;;;;4995287;28;20512;-68
2023/07/05 11:13:48;;;;;;;4.90;4.50;;;32.40;42.20;;;;;;4995615;28;20414;-67
2023/07/05 11:16:17;;;;;;;5.00;4.60;;;32.30;40.90;;;;;;4995367;28;20538;-68
2023/07/05 11:18:44;;;;;;;4.23;3.70;;;31.00;41.50;;;;;;4995152;28;20425;-67
2023/07/05 11:21:32;;;;;;;4.50;4.10;;;31.10;42.40;;;;;;4997739;28;20487;-67
2023/07/05 11:23:58;;;;;;;4.80;4.40;;;31.70;41.60;;;;;;5003685;28;20449;-67
2023/07/05 11:26:34;;;;;;;4.30;3.90;;;32.40;40.00;;;;;;5003117;28;21154;-68
2023/07/05 11:29:00;;;;;;;4.67;4.27;;;33.20;39.90;;;;;;4995135;28;20199;-69
2023/07/05 11:31:28;;;;;;;4.90;4.50;;;33.00;38.40;;;;;;4994986;28;20497;-68
2023/07/05 11:34:25;;;;;;;3.80;3.60;;;34.50;38.30;;;;;;4995175;28;20172;-68
2023/07/05 11:37:13;;;;;;;4.63;4.10;;;36.40;35.90;;;;;;4995085;28;20804;-68
2023/07/05 11:39:41;;;;;;;4.13;3.77;;;34.90;34.10;;;;;;5004523;28;20534;-68
2023/07/05 11:42:16;;;;;;;4.17;3.87;;;35.60;34.60;;;;;;5000269;28;20423;-68
2023/07/05 11:44:45;;;;;;;3.63;3.33;;;34.30;33.30;;;;;;4994831;28;21112;-68
2023/07/05 11:47:33;;;;;;;5.53;3.73;;;33.70;32.10;;;;;;4995039;28;20501;-68
2023/07/05 11:50:07;;;;;;;3.37;3.17;;;33.60;32.30;;;;;;4994487;28;20916;-68
2023/07/05 11:52:35;;;;;;;3.87;3.33;;;34.30;32.20;;;;;;4994767;28;20455;-68
2023/07/05 11:55:15;;;;;;;4.27;3.87;;;34.70;31.10;;;;;;4998164;28;20979;-67
2023/07/05 11:58:05;;;;;;;5.00;3.40;;;33.90;30.20;;;;;;5002719;28;20778;-68
2023/07/05 12:01:01;;;;;;;3.57;3.37;;;33.90;30.10;;;;;;4994502;28;20415;-68
2023/07/05 12:03:30;;;;;;;3.30;3.10;;;35.60;30.30;;;;;;4994200;28;20411;-67
2023/07/05 12:06:06;;;;;;;3.57;3.27;;;35.50;29.80;;;;;;4994351;28;20462;-67
2023/07/05 12:08:41;;;;;;;4.50;3.33;;;35.80;29.30;;;;;;4994288;28;20406;-67
2023/07/05 12:11:08;;;;;;;3.60;3.27;;;35.80;29.30;;;;;;4998397;28;20461;-67
2023/07/05 12:13:35;;;;;;;3.80;3.50;;;36.80;29.00;;;;;;5004324;28;20426;-67
2023/07/05 12:16:03;;;;;;;3.70;3.40;;;36.70;29.40;;;;;;4994390;28;20521;-67
2023/07/05 12:18:30;;;;;;;4.03;3.53;;;36.20;28.70;;;;;;4994047;28;20419;-67
2023/07/05 12:20:58;;;;;;;6.27;4.00;;;35.80;28.50;;;;;;4994196;28;20430;-67
2023/07/05 12:23:28;;;;;;;3.53;3.30;;;36.50;28.20;;;;;;4994307;28;20484;-67
2023/07/05 12:25:56;;;;;;;3.67;3.37;;;37.20;28.00;;;;;;4994149;28;20515;-67
2023/07/05 12:28:24;;;;;;;3.80;3.60;;;37.50;27.00;;;;;;4994722;28;20509;-67
2023/07/05 12:30:55;;;;;;;3.20;3.00;;;38.60;26.70;;;;;;4998919;28;20461;-67
2023/07/05 12:33:24;;;;;;;3.40;3.20;;;36.60;27.40;;;;;;4997652;28;20430;-67
2023/07/05 12:36:09;;;;;;;3.30;3.10;;;35.90;27.20;;;;;;4993987;28;20439;-67
2023/07/05 12:38:36;;;;;;;3.87;3.57;;;35.90;27.70;;;;;;4993615;28;20513;-67
2023/07/05 12:41:02;;;;;;;2.87;2.70;;;37.40;27.70;;;;;;4994099;28;20767;-67
2023/07/05 12:43:28;;;;;;;3.40;3.10;;;36.90;26.50;;;;;;4993949;28;20477;-67
2023/07/05 12:46:05;;;;;;;2.73;2.53;;;35.80;28.50;;;;;;5004978;28;20298;-67
2023/07/05 12:48:31;;;;;;;2.80;2.60;;;36.20;29.20;;;;;;5001497;28;20423;-67
2023/07/05 12:51:19;;;;;;;3.00;2.80;;;36.60;28.90;;;;;;4993593;28;20459;-68
2023/07/05 12:53:52;;;;;;;5.57;3.40;;;37.90;28.90;;;;;;4993736;28;20160;-67
2023/07/05 12:56:31;;;;;;;4.43;2.90;;;38.70;28.30;;;;;;4993472;28;20438;-67
2023/07/05 12:59:24;;;;;;;3.90;3.60;;;37.10;28.20;;;;;;4993317;28;20477;-67
2023/07/05 13:01:50;;;;;;;3.27;3.07;;;37.10;28.20;;;;;;5000793;28;20439;-67
2023/07/05 13:04:18;;;;;;;4.93;3.30;;;36.90;28.20;;;;;;5001565;28;21011;-67